SBI1558 KCLT-KSTY
Flight info
| Callsign | SBI1558 |
|---|---|
| Flight time | N/A |
| Altitude | 28000 |
| Route | BOBZY5 TNSLY MILBY DEHAN3 |
| Aircraft | A20N/M-SDE2E3FGHIJ1RWXY/LB1 |
Departure
| Time | 2026-05-04 21:41 |
|---|---|
| Airport | Charlotte Douglas International Airport (KCLT) |
Arrival
| Time | N/A |
|---|---|
| Airport | KSTY |
| Time | Latitude | Longitude | Altitude | Speed | Heading |
|---|---|---|---|---|---|
| 2026-05-04 21:16 | 35.22427 | -80.94003 | 753 ft | 0 kts | 254° |
| 2026-05-04 21:29 | 35.22430 | -80.93992 | 753 ft | 2 kts | 254° |
| 2026-05-04 21:29 | 35.22436 | -80.93966 | 753 ft | 5 kts | 254° |
| 2026-05-04 21:29 | 35.22441 | -80.93948 | 749 ft | 2 kts | 236° |
| 2026-05-04 21:30 | 35.22449 | -80.93939 | 752 ft | 2 kts | 204° |
| 2026-05-04 21:30 | 35.22463 | -80.93930 | 751 ft | 4 kts | 195° |
| 2026-05-04 21:30 | 35.22481 | -80.93891 | 750 ft | 3 kts | 287° |
| 2026-05-04 21:30 | 35.22477 | -80.93864 | 751 ft | 3 kts | 259° |
| 2026-05-04 21:31 | 35.22512 | -80.93841 | 752 ft | 6 kts | 167° |
| 2026-05-04 21:31 | 35.22553 | -80.93849 | 754 ft | 2 kts | 178° |
| 2026-05-04 21:31 | 35.22554 | -80.93849 | 753 ft | 0 kts | 178° |
| 2026-05-04 21:35 | 35.22542 | -80.93849 | 749 ft | 3 kts | 178° |
| 2026-05-04 21:35 | 35.22509 | -80.93847 | 749 ft | 6 kts | 178° |
| 2026-05-04 21:35 | 35.22456 | -80.93839 | 752 ft | 9 kts | 169° |
| 2026-05-04 21:35 | 35.22382 | -80.93829 | 752 ft | 12 kts | 175° |
| 2026-05-04 21:36 | 35.22314 | -80.93823 | 749 ft | 0 kts | 175° |
| 2026-05-04 21:36 | 35.22304 | -80.93820 | 749 ft | 3 kts | 165° |
| 2026-05-04 21:36 | 35.22275 | -80.93813 | 748 ft | 6 kts | 179° |
| 2026-05-04 21:37 | 35.22221 | -80.93809 | 748 ft | 9 kts | 164° |
| 2026-05-04 21:37 | 35.22208 | -80.93746 | 748 ft | 9 kts | 50° |
| 2026-05-04 21:37 | 35.22270 | -80.93733 | 750 ft | 10 kts | 355° |
| 2026-05-04 21:37 | 35.22351 | -80.93741 | 748 ft | 13 kts | 355° |
| 2026-05-04 21:38 | 35.22425 | -80.93748 | 751 ft | 0 kts | 355° |
| 2026-05-04 21:38 | 35.22425 | -80.93749 | 751 ft | 1 kts | 355° |
| 2026-05-04 21:38 | 35.22437 | -80.93750 | 750 ft | 3 kts | 355° |
| 2026-05-04 21:38 | 35.22469 | -80.93751 | 751 ft | 7 kts | 5° |
| 2026-05-04 21:39 | 35.22497 | -80.93734 | 755 ft | 0 kts | 45° |
| 2026-05-04 21:39 | 35.22503 | -80.93716 | 753 ft | 6 kts | 67° |
| 2026-05-04 21:39 | 35.22501 | -80.93637 | 752 ft | 14 kts | 122° |
| 2026-05-04 21:39 | 35.22413 | -80.93610 | 751 ft | 0 kts | 175° |
| 2026-05-04 21:40 | 35.22239 | -80.93597 | 749 ft | 66 kts | 176° |
| 2026-05-04 21:40 | 35.21503 | -80.93537 | 745 ft | 141 kts | 176° |
| 2026-05-04 21:41 | 35.20379 | -80.93430 | 1108 ft | 174 kts | 180° |
| 2026-05-04 21:41 | 35.19120 | -80.93310 | 2057 ft | 180 kts | 178° |
| 2026-05-04 21:41 | 35.17873 | -80.93218 | 3196 ft | 185 kts | 179° |
| 2026-05-04 21:41 | 35.16536 | -80.93131 | 4027 ft | 202 kts | 185° |
| 2026-05-04 21:42 | 35.15165 | -80.93757 | 4646 ft | 225 kts | 219° |
| 2026-05-04 21:42 | 35.14083 | -80.95223 | 5344 ft | 246 kts | 232° |
| 2026-05-04 21:42 | 35.12964 | -80.96937 | 6089 ft | 259 kts | 232° |
| 2026-05-04 21:42 | 35.11821 | -80.98639 | 7005 ft | 265 kts | 232° |
| 2026-05-04 21:43 | 35.10644 | -81.00383 | 7962 ft | 269 kts | 232° |
| 2026-05-04 21:43 | 35.09429 | -81.02180 | 8973 ft | 272 kts | 232° |
| 2026-05-04 21:43 | 35.08227 | -81.03948 | 9932 ft | 277 kts | 232° |
| 2026-05-04 21:43 | 35.06986 | -81.05799 | 10571 ft | 291 kts | 236° |
| 2026-05-04 21:44 | 35.06143 | -81.08151 | 10911 ft | 311 kts | 259° |
| 2026-05-04 21:44 | 35.06170 | -81.10809 | 11398 ft | 325 kts | 283° |
| 2026-05-04 21:44 | 35.06913 | -81.13435 | 12265 ft | 328 kts | 291° |
| 2026-05-04 21:44 | 35.07789 | -81.16012 | 13174 ft | 331 kts | 291° |
| 2026-05-04 21:45 | 35.08600 | -81.18658 | 13998 ft | 334 kts | 288° |
| 2026-05-04 21:45 | 35.09320 | -81.21377 | 14744 ft | 338 kts | 286° |
| 2026-05-04 21:45 | 35.09976 | -81.24137 | 15507 ft | 341 kts | 285° |
| 2026-05-04 21:45 | 35.10610 | -81.26957 | 16245 ft | 346 kts | 285° |
| 2026-05-04 21:46 | 35.11235 | -81.29812 | 16960 ft | 350 kts | 285° |
| 2026-05-04 21:46 | 35.11864 | -81.32698 | 17706 ft | 353 kts | 285° |
| 2026-05-04 21:46 | 35.12499 | -81.35610 | 18396 ft | 357 kts | 285° |
| 2026-05-04 21:46 | 35.13142 | -81.38550 | 19065 ft | 358 kts | 285° |
| 2026-05-04 21:47 | 35.13785 | -81.41493 | 19784 ft | 359 kts | 285° |
| 2026-05-04 21:47 | 35.14430 | -81.44443 | 20463 ft | 360 kts | 285° |
| 2026-05-04 21:47 | 35.15079 | -81.47411 | 21123 ft | 362 kts | 285° |
| 2026-05-04 21:47 | 35.15730 | -81.50396 | 21806 ft | 364 kts | 284° |
| 2026-05-04 21:48 | 35.16382 | -81.53386 | 22457 ft | 366 kts | 284° |
| 2026-05-04 21:48 | 35.17038 | -81.56403 | 23111 ft | 368 kts | 284° |
| 2026-05-04 21:48 | 35.17681 | -81.59441 | 23724 ft | 370 kts | 282° |
| 2026-05-04 21:48 | 35.17995 | -81.62571 | 24205 ft | 374 kts | 272° |
| 2026-05-04 21:49 | 35.17842 | -81.65753 | 24698 ft | 378 kts | 263° |
| 2026-05-04 21:49 | 35.17223 | -81.68900 | 25157 ft | 383 kts | 255° |
| 2026-05-04 21:49 | 35.16439 | -81.72019 | 25638 ft | 385 kts | 256° |
| 2026-05-04 21:49 | 35.15670 | -81.75119 | 26107 ft | 388 kts | 256° |
| 2026-05-04 21:50 | 35.14889 | -81.78285 | 26567 ft | 390 kts | 256° |
| 2026-05-04 21:50 | 35.14101 | -81.81474 | 27016 ft | 393 kts | 256° |
| 2026-05-04 21:50 | 35.13307 | -81.84682 | 27462 ft | 395 kts | 256° |
| 2026-05-04 21:50 | 35.12510 | -81.87902 | 27871 ft | 398 kts | 256° |
| 2026-05-04 21:51 | 35.11706 | -81.91140 | 28008 ft | 399 kts | 256° |
| 2026-05-04 21:51 | 35.10091 | -81.97632 | 28019 ft | 399 kts | 256° |
| 2026-05-04 21:52 | 35.08366 | -82.04073 | 28032 ft | 401 kts | 252° |
| 2026-05-04 21:52 | 35.07372 | -82.07271 | 28354 ft | 404 kts | 252° |
| 2026-05-04 21:52 | 35.06354 | -82.10462 | 28873 ft | 404 kts | 250° |
| 2026-05-04 21:52 | 35.05371 | -82.13633 | 29663 ft | 396 kts | 253° |
| 2026-05-04 21:53 | 35.04476 | -82.16825 | 29965 ft | 401 kts | 254° |
| 2026-05-04 21:53 | 35.02616 | -82.23377 | 30023 ft | 413 kts | 253° |
| 2026-05-04 21:54 | 35.00651 | -82.29950 | 30028 ft | 412 kts | 252° |
| 2026-05-04 21:54 | 34.98658 | -82.36508 | 30032 ft | 413 kts | 252° |
| 2026-05-04 21:55 | 34.96656 | -82.43076 | 30035 ft | 413 kts | 252° |
| 2026-05-04 21:55 | 34.94652 | -82.49642 | 30033 ft | 414 kts | 252° |
| 2026-05-04 21:56 | 34.92641 | -82.56218 | 30024 ft | 414 kts | 252° |
| 2026-05-04 21:56 | 34.90623 | -82.62801 | 30027 ft | 414 kts | 252° |
| 2026-05-04 21:57 | 34.88942 | -82.68270 | 30026 ft | 415 kts | 252° |
| 2026-05-04 21:57 | 34.86585 | -82.75927 | 30025 ft | 415 kts | 252° |
| 2026-05-04 21:58 | 34.84882 | -82.81447 | 30028 ft | 415 kts | 252° |
| 2026-05-04 21:58 | 34.82844 | -82.88036 | 30026 ft | 416 kts | 251° |
| 2026-05-04 21:59 | 34.80801 | -82.94629 | 30020 ft | 416 kts | 251° |
| 2026-05-04 21:59 | 34.79793 | -82.97877 | 29793 ft | 413 kts | 251° |
| 2026-05-04 21:59 | 34.78769 | -83.01170 | 29261 ft | 410 kts | 251° |
| 2026-05-04 21:59 | 34.77763 | -83.04402 | 28645 ft | 407 kts | 251° |
| 2026-05-04 22:00 | 34.76764 | -83.07610 | 28006 ft | 404 kts | 251° |
| 2026-05-04 22:00 | 34.75785 | -83.10749 | 27391 ft | 400 kts | 251° |